sensor_id;sensor_type;location;lat;lon;timestamp;P1;durP1;ratioP1;P2;durP2;ratioP2
50773;SDS011;36745;48.544;8.918;2022-12-19T00:00:41;120.75;;;56.45;;
50773;SDS011;36745;48.544;8.918;2022-12-19T00:04:02;126.10;;;56.30;;
50773;SDS011;36745;48.544;8.918;2022-12-19T00:07:24;119.45;;;55.88;;
50773;SDS011;36745;48.544;8.918;2022-12-19T00:10:52;122.95;;;56.30;;
50773;SDS011;36745;48.544;8.918;2022-12-19T00:14:13;118.13;;;54.00;;
50773;SDS011;36745;48.544;8.918;2022-12-19T00:17:33;111.53;;;53.30;;
50773;SDS011;36745;48.544;8.918;2022-12-19T00:20:54;119.72;;;54.22;;
50773;SDS011;36745;48.544;8.918;2022-12-19T00:24:15;112.03;;;53.15;;
50773;SDS011;36745;48.544;8.918;2022-12-19T00:27:34;108.15;;;54.55;;
50773;SDS011;36745;48.544;8.918;2022-12-19T00:30:55;118.40;;;55.58;;
50773;SDS011;36745;48.544;8.918;2022-12-19T00:37:38;111.22;;;50.80;;
50773;SDS011;36745;48.544;8.918;2022-12-19T00:44:31;118.95;;;53.60;;
50773;SDS011;36745;48.544;8.918;2022-12-19T00:47:50;126.95;;;55.78;;
50773;SDS011;36745;48.544;8.918;2022-12-19T00:51:11;135.68;;;61.15;;
50773;SDS011;36745;48.544;8.918;2022-12-19T00:54:33;129.05;;;56.47;;
50773;SDS011;36745;48.544;8.918;2022-12-19T00:57:53;117.22;;;54.10;;
50773;SDS011;36745;48.544;8.918;2022-12-19T01:01:20;113.40;;;53.03;;
50773;SDS011;36745;48.544;8.918;2022-12-19T01:04:41;119.20;;;53.28;;
50773;SDS011;36745;48.544;8.918;2022-12-19T01:08:01;122.80;;;55.47;;
50773;SDS011;36745;48.544;8.918;2022-12-19T01:11:21;109.05;;;52.70;;
50773;SDS011;36745;48.544;8.918;2022-12-19T01:14:59;115.18;;;54.03;;
50773;SDS011;36745;48.544;8.918;2022-12-19T01:18:19;117.18;;;57.10;;
50773;SDS011;36745;48.544;8.918;2022-12-19T01:21:39;117.72;;;56.80;;
50773;SDS011;36745;48.544;8.918;2022-12-19T01:24:58;119.22;;;55.80;;
50773;SDS011;36745;48.544;8.918;2022-12-19T01:28:18;128.35;;;56.83;;
50773;SDS011;36745;48.544;8.918;2022-12-19T01:31:38;124.18;;;56.92;;
50773;SDS011;36745;48.544;8.918;2022-12-19T01:34:58;121.93;;;56.15;;
50773;SDS011;36745;48.544;8.918;2022-12-19T01:38:18;110.85;;;51.67;;
50773;SDS011;36745;48.544;8.918;2022-12-19T01:41:38;115.85;;;55.00;;
50773;SDS011;36745;48.544;8.918;2022-12-19T01:48:29;110.97;;;52.53;;
50773;SDS011;36745;48.544;8.918;2022-12-19T01:52:03;107.63;;;51.65;;
50773;SDS011;36745;48.544;8.918;2022-12-19T01:55:26;111.85;;;53.25;;
50773;SDS011;36745;48.544;8.918;2022-12-19T01:58:46;115.10;;;51.67;;
50773;SDS011;36745;48.544;8.918;2022-12-19T02:02:16;120.95;;;53.70;;
50773;SDS011;36745;48.544;8.918;2022-12-19T02:05:41;109.97;;;52.63;;
50773;SDS011;36745;48.544;8.918;2022-12-19T02:09:02;122.78;;;53.70;;
50773;SDS011;36745;48.544;8.918;2022-12-19T02:12:22;117.20;;;54.40;;
50773;SDS011;36745;48.544;8.918;2022-12-19T02:23:28;114.53;;;53.53;;
50773;SDS011;36745;48.544;8.918;2022-12-19T02:31:22;112.43;;;53.47;;
50773;SDS011;36745;48.544;8.918;2022-12-19T02:35:09;112.80;;;54.05;;
50773;SDS011;36745;48.544;8.918;2022-12-19T02:38:47;111.60;;;53.58;;
50773;SDS011;36745;48.544;8.918;2022-12-19T02:42:24;123.85;;;57.53;;
50773;SDS011;36745;48.544;8.918;2022-12-19T02:45:54;119.03;;;58.85;;
50773;SDS011;36745;48.544;8.918;2022-12-19T02:49:15;120.53;;;56.95;;
50773;SDS011;36745;48.544;8.918;2022-12-19T02:56:14;117.18;;;55.60;;
50773;SDS011;36745;48.544;8.918;2022-12-19T03:07:00;115.13;;;56.55;;
50773;SDS011;36745;48.544;8.918;2022-12-19T03:10:52;115.13;;;54.83;;
50773;SDS011;36745;48.544;8.918;2022-12-19T03:14:16;129.27;;;57.95;;
50773;SDS011;36745;48.544;8.918;2022-12-19T03:17:38;153.70;;;64.45;;
50773;SDS011;36745;48.544;8.918;2022-12-19T03:21:01;121.72;;;56.10;;
50773;SDS011;36745;48.544;8.918;2022-12-19T03:24:22;111.43;;;55.45;;
50773;SDS011;36745;48.544;8.918;2022-12-19T03:27:43;114.90;;;55.53;;
50773;SDS011;36745;48.544;8.918;2022-12-19T03:31:05;114.93;;;55.22;;
50773;SDS011;36745;48.544;8.918;2022-12-19T03:35:09;115.35;;;56.28;;
50773;SDS011;36745;48.544;8.918;2022-12-19T03:38:11;112.13;;;54.60;;
50773;SDS011;36745;48.544;8.918;2022-12-19T03:41:32;106.47;;;53.67;;
50773;SDS011;36745;48.544;8.918;2022-12-19T03:45:12;117.28;;;54.80;;
50773;SDS011;36745;48.544;8.918;2022-12-19T03:52:10;112.90;;;53.58;;
50773;SDS011;36745;48.544;8.918;2022-12-19T03:55:51;113.93;;;53.85;;
50773;SDS011;36745;48.544;8.918;2022-12-19T04:02:57;106.10;;;50.92;;
50773;SDS011;36745;48.544;8.918;2022-12-19T04:06:17;110.82;;;51.70;;
50773;SDS011;36745;48.544;8.918;2022-12-19T04:09:37;110.40;;;50.30;;
50773;SDS011;36745;48.544;8.918;2022-12-19T04:13:03;102.60;;;50.03;;
50773;SDS011;36745;48.544;8.918;2022-12-19T04:17:11;106.05;;;49.53;;
50773;SDS011;36745;48.544;8.918;2022-12-19T04:20:20;101.70;;;48.10;;
50773;SDS011;36745;48.544;8.918;2022-12-19T04:23:44;104.05;;;47.58;;
50773;SDS011;36745;48.544;8.918;2022-12-19T04:27:11;101.75;;;47.58;;
50773;SDS011;36745;48.544;8.918;2022-12-19T04:30:32;114.35;;;55.90;;
50773;SDS011;36745;48.544;8.918;2022-12-19T04:33:52;163.13;;;71.55;;
50773;SDS011;36745;48.544;8.918;2022-12-19T04:37:12;207.40;;;91.13;;
50773;SDS011;36745;48.544;8.918;2022-12-19T04:40:33;147.40;;;69.30;;
50773;SDS011;36745;48.544;8.918;2022-12-19T04:43:53;135.60;;;63.53;;
50773;SDS011;36745;48.544;8.918;2022-12-19T04:47:12;108.18;;;51.08;;
50773;SDS011;36745;48.544;8.918;2022-12-19T04:50:33;99.63;;;48.80;;
50773;SDS011;36745;48.544;8.918;2022-12-19T04:53:53;101.57;;;48.00;;
50773;SDS011;36745;48.544;8.918;2022-12-19T04:57:13;101.60;;;47.08;;
50773;SDS011;36745;48.544;8.918;2022-12-19T05:00:33;98.43;;;45.92;;
50773;SDS011;36745;48.544;8.918;2022-12-19T05:03:53;96.47;;;43.63;;
50773;SDS011;36745;48.544;8.918;2022-12-19T05:07:13;97.50;;;46.72;;
50773;SDS011;36745;48.544;8.918;2022-12-19T05:10:32;92.07;;;43.55;;
50773;SDS011;36745;48.544;8.918;2022-12-19T05:13:54;97.35;;;44.67;;
50773;SDS011;36745;48.544;8.918;2022-12-19T05:17:14;97.72;;;45.60;;
50773;SDS011;36745;48.544;8.918;2022-12-19T05:20:35;97.82;;;47.47;;
50773;SDS011;36745;48.544;8.918;2022-12-19T05:23:55;96.47;;;43.67;;
50773;SDS011;36745;48.544;8.918;2022-12-19T05:27:14;287.55;;;96.40;;
50773;SDS011;36745;48.544;8.918;2022-12-19T05:30:34;116.22;;;52.15;;
50773;SDS011;36745;48.544;8.918;2022-12-19T05:33:54;120.97;;;51.55;;
50773;SDS011;36745;48.544;8.918;2022-12-19T05:37:14;128.68;;;55.58;;
50773;SDS011;36745;48.544;8.918;2022-12-19T05:40:33;138.88;;;56.78;;
50773;SDS011;36745;48.544;8.918;2022-12-19T05:43:54;129.13;;;54.60;;
50773;SDS011;36745;48.544;8.918;2022-12-19T05:47:14;121.80;;;52.53;;
50773;SDS011;36745;48.544;8.918;2022-12-19T05:50:34;110.78;;;51.63;;
50773;SDS011;36745;48.544;8.918;2022-12-19T05:53:54;129.57;;;57.13;;
50773;SDS011;36745;48.544;8.918;2022-12-19T05:57:14;107.65;;;49.63;;
50773;SDS011;36745;48.544;8.918;2022-12-19T06:00:34;115.57;;;50.92;;
50773;SDS011;36745;48.544;8.918;2022-12-19T06:03:54;130.48;;;55.30;;
50773;SDS011;36745;48.544;8.918;2022-12-19T06:07:14;103.53;;;50.00;;
50773;SDS011;36745;48.544;8.918;2022-12-19T06:10:34;104.50;;;47.75;;
50773;SDS011;36745;48.544;8.918;2022-12-19T06:13:53;99.50;;;48.15;;
50773;SDS011;36745;48.544;8.918;2022-12-19T06:17:13;113.28;;;52.72;;
50773;SDS011;36745;48.544;8.918;2022-12-19T06:20:33;152.75;;;61.67;;
50773;SDS011;36745;48.544;8.918;2022-12-19T06:23:53;207.02;;;84.65;;
50773;SDS011;36745;48.544;8.918;2022-12-19T06:27:21;311.45;;;125.22;;
50773;SDS011;36745;48.544;8.918;2022-12-19T06:30:44;275.38;;;109.05;;
50773;SDS011;36745;48.544;8.918;2022-12-19T06:34:04;219.20;;;96.13;;
50773;SDS011;36745;48.544;8.918;2022-12-19T06:37:24;255.13;;;116.65;;
50773;SDS011;36745;48.544;8.918;2022-12-19T06:40:43;221.30;;;92.88;;
50773;SDS011;36745;48.544;8.918;2022-12-19T06:44:22;178.80;;;78.45;;
50773;SDS011;36745;48.544;8.918;2022-12-19T06:47:41;176.30;;;79.03;;
50773;SDS011;36745;48.544;8.918;2022-12-19T06:51:01;184.60;;;79.28;;
50773;SDS011;36745;48.544;8.918;2022-12-19T06:54:21;176.65;;;76.20;;
50773;SDS011;36745;48.544;8.918;2022-12-19T06:57:41;200.18;;;96.25;;
50773;SDS011;36745;48.544;8.918;2022-12-19T07:01:04;202.18;;;100.35;;
50773;SDS011;36745;48.544;8.918;2022-12-19T07:04:58;193.77;;;92.68;;
50773;SDS011;36745;48.544;8.918;2022-12-19T07:08:14;187.90;;;86.85;;
50773;SDS011;36745;48.544;8.918;2022-12-19T07:11:34;157.90;;;78.05;;
50773;SDS011;36745;48.544;8.918;2022-12-19T07:14:54;148.15;;;72.82;;
50773;SDS011;36745;48.544;8.918;2022-12-19T07:18:14;149.63;;;73.90;;
50773;SDS011;36745;48.544;8.918;2022-12-19T07:21:33;196.57;;;95.72;;
50773;SDS011;36745;48.544;8.918;2022-12-19T07:24:54;251.27;;;110.00;;
50773;SDS011;36745;48.544;8.918;2022-12-19T07:28:15;275.77;;;115.18;;
50773;SDS011;36745;48.544;8.918;2022-12-19T07:31:34;158.55;;;67.32;;
50773;SDS011;36745;48.544;8.918;2022-12-19T07:34:54;152.13;;;65.93;;
50773;SDS011;36745;48.544;8.918;2022-12-19T07:38:14;130.48;;;57.60;;
50773;SDS011;36745;48.544;8.918;2022-12-19T07:41:37;155.00;;;67.15;;
50773;SDS011;36745;48.544;8.918;2022-12-19T07:44:57;172.00;;;69.22;;
50773;SDS011;36745;48.544;8.918;2022-12-19T07:48:16;149.88;;;63.50;;
50773;SDS011;36745;48.544;8.918;2022-12-19T07:51:36;131.20;;;59.72;;
50773;SDS011;36745;48.544;8.918;2022-12-19T07:54:56;119.50;;;56.80;;
50773;SDS011;36745;48.544;8.918;2022-12-19T07:58:15;115.32;;;56.53;;
50773;SDS011;36745;48.544;8.918;2022-12-19T08:01:35;120.97;;;56.05;;
50773;SDS011;36745;48.544;8.918;2022-12-19T08:04:55;120.07;;;53.50;;
50773;SDS011;36745;48.544;8.918;2022-12-19T08:08:15;121.20;;;56.90;;
50773;SDS011;36745;48.544;8.918;2022-12-19T08:11:35;115.78;;;55.83;;
50773;SDS011;36745;48.544;8.918;2022-12-19T08:14:55;131.95;;;59.88;;
50773;SDS011;36745;48.544;8.918;2022-12-19T08:18:14;122.60;;;57.00;;
50773;SDS011;36745;48.544;8.918;2022-12-19T08:21:34;137.80;;;63.78;;
50773;SDS011;36745;48.544;8.918;2022-12-19T08:24:54;220.25;;;86.43;;
50773;SDS011;36745;48.544;8.918;2022-12-19T08:28:14;297.08;;;127.20;;
50773;SDS011;36745;48.544;8.918;2022-12-19T08:31:33;166.23;;;73.72;;
50773;SDS011;36745;48.544;8.918;2022-12-19T08:34:53;215.65;;;86.13;;
50773;SDS011;36745;48.544;8.918;2022-12-19T08:38:14;229.25;;;98.97;;
50773;SDS011;36745;48.544;8.918;2022-12-19T08:41:34;234.30;;;108.07;;
50773;SDS011;36745;48.544;8.918;2022-12-19T08:44:55;226.48;;;109.82;;
50773;SDS011;36745;48.544;8.918;2022-12-19T08:48:15;234.13;;;108.93;;
50773;SDS011;36745;48.544;8.918;2022-12-19T08:51:35;173.82;;;80.97;;
50773;SDS011;36745;48.544;8.918;2022-12-19T08:54:55;161.60;;;77.75;;
50773;SDS011;36745;48.544;8.918;2022-12-19T08:58:15;162.90;;;80.85;;
50773;SDS011;36745;48.544;8.918;2022-12-19T09:01:35;141.38;;;73.88;;
50773;SDS011;36745;48.544;8.918;2022-12-19T09:04:54;162.00;;;75.70;;
50773;SDS011;36745;48.544;8.918;2022-12-19T09:08:14;122.75;;;60.85;;
50773;SDS011;36745;48.544;8.918;2022-12-19T09:11:34;118.38;;;57.70;;
50773;SDS011;36745;48.544;8.918;2022-12-19T09:14:54;116.38;;;58.42;;
50773;SDS011;36745;48.544;8.918;2022-12-19T09:18:13;137.25;;;69.03;;
50773;SDS011;36745;48.544;8.918;2022-12-19T09:21:33;118.95;;;61.05;;
50773;SDS011;36745;48.544;8.918;2022-12-19T09:24:53;91.50;;;48.90;;
50773;SDS011;36745;48.544;8.918;2022-12-19T09:28:13;93.35;;;47.97;;
50773;SDS011;36745;48.544;8.918;2022-12-19T09:31:33;119.40;;;59.08;;
50773;SDS011;36745;48.544;8.918;2022-12-19T09:34:53;80.38;;;41.20;;
50773;SDS011;36745;48.544;8.918;2022-12-19T09:38:12;89.80;;;45.65;;
50773;SDS011;36745;48.544;8.918;2022-12-19T09:48:59;83.55;;;42.55;;
50773;SDS011;36745;48.544;8.918;2022-12-19T09:52:22;91.45;;;46.30;;
50773;SDS011;36745;48.544;8.918;2022-12-19T09:55:47;87.30;;;46.83;;
50773;SDS011;36745;48.544;8.918;2022-12-19T09:59:12;100.95;;;54.22;;
50773;SDS011;36745;48.544;8.918;2022-12-19T10:06:23;121.22;;;69.13;;
50773;SDS011;36745;48.544;8.918;2022-12-19T10:09:43;105.95;;;60.05;;
50773;SDS011;36745;48.544;8.918;2022-12-19T10:13:07;88.05;;;47.78;;
50773;SDS011;36745;48.544;8.918;2022-12-19T10:20:28;82.35;;;48.25;;
50773;SDS011;36745;48.544;8.918;2022-12-19T10:27:23;93.20;;;53.20;;
50773;SDS011;36745;48.544;8.918;2022-12-19T10:31:11;86.57;;;50.20;;
50773;SDS011;36745;48.544;8.918;2022-12-19T10:34:37;107.07;;;53.20;;
50773;SDS011;36745;48.544;8.918;2022-12-19T10:41:26;87.05;;;50.17;;
50773;SDS011;36745;48.544;8.918;2022-12-19T10:44:48;86.10;;;49.00;;
50773;SDS011;36745;48.544;8.918;2022-12-19T10:48:13;89.78;;;48.85;;
50773;SDS011;36745;48.544;8.918;2022-12-19T10:51:35;91.15;;;53.35;;
50773;SDS011;36745;48.544;8.918;2022-12-19T10:54:55;79.85;;;46.97;;
50773;SDS011;36745;48.544;8.918;2022-12-19T11:01:39;76.10;;;44.22;;
50773;SDS011;36745;48.544;8.918;2022-12-19T11:04:59;73.03;;;42.63;;
50773;SDS011;36745;48.544;8.918;2022-12-19T11:08:23;141.73;;;68.65;;
50773;SDS011;36745;48.544;8.918;2022-12-19T11:11:47;77.13;;;44.58;;
50773;SDS011;36745;48.544;8.918;2022-12-19T11:18:43;73.32;;;42.88;;
50773;SDS011;36745;48.544;8.918;2022-12-19T11:22:05;75.63;;;42.58;;
50773;SDS011;36745;48.544;8.918;2022-12-19T11:25:41;84.65;;;48.05;;
50773;SDS011;36745;48.544;8.918;2022-12-19T11:29:03;79.57;;;47.80;;
50773;SDS011;36745;48.544;8.918;2022-12-19T11:32:36;81.70;;;49.70;;
50773;SDS011;36745;48.544;8.918;2022-12-19T11:35:58;77.07;;;47.78;;
50773;SDS011;36745;48.544;8.918;2022-12-19T11:39:34;76.40;;;45.33;;
50773;SDS011;36745;48.544;8.918;2022-12-19T11:47:04;77.20;;;48.13;;
50773;SDS011;36745;48.544;8.918;2022-12-19T11:50:38;84.80;;;50.28;;
50773;SDS011;36745;48.544;8.918;2022-12-19T11:57:46;67.28;;;39.30;;
50773;SDS011;36745;48.544;8.918;2022-12-19T12:05:03;213.52;;;118.72;;
50773;SDS011;36745;48.544;8.918;2022-12-19T12:08:50;132.40;;;73.20;;
50773;SDS011;36745;48.544;8.918;2022-12-19T12:23:14;87.65;;;54.50;;
50773;SDS011;36745;48.544;8.918;2022-12-19T12:26:46;78.95;;;47.58;;
50773;SDS011;36745;48.544;8.918;2022-12-19T12:30:19;78.90;;;48.28;;
50773;SDS011;36745;48.544;8.918;2022-12-19T12:49:02;61.80;;;40.42;;
50773;SDS011;36745;48.544;8.918;2022-12-19T12:52:37;56.47;;;35.58;;
50773;SDS011;36745;48.544;8.918;2022-12-19T12:56:00;105.93;;;47.22;;
50773;SDS011;36745;48.544;8.918;2022-12-19T12:59:24;61.40;;;35.15;;
50773;SDS011;36745;48.544;8.918;2022-12-19T13:10:17;62.75;;;37.63;;
50773;SDS011;36745;48.544;8.918;2022-12-19T13:13:52;88.95;;;55.20;;
50773;SDS011;36745;48.544;8.918;2022-12-19T13:20:51;65.32;;;39.63;;
50773;SDS011;36745;48.544;8.918;2022-12-19T13:24:12;65.88;;;38.95;;
50773;SDS011;36745;48.544;8.918;2022-12-19T13:27:39;118.63;;;63.88;;
50773;SDS011;36745;48.544;8.918;2022-12-19T13:34:32;83.40;;;47.80;;
50773;SDS011;36745;48.544;8.918;2022-12-19T13:38:15;85.82;;;50.17;;
50773;SDS011;36745;48.544;8.918;2022-12-19T13:41:39;84.57;;;50.00;;
50773;SDS011;36745;48.544;8.918;2022-12-19T13:45:27;89.82;;;49.83;;
50773;SDS011;36745;48.544;8.918;2022-12-19T13:48:49;75.22;;;41.70;;
50773;SDS011;36745;48.544;8.918;2022-12-19T13:52:12;75.60;;;46.43;;
50773;SDS011;36745;48.544;8.918;2022-12-19T13:55:32;70.75;;;42.65;;
50773;SDS011;36745;48.544;8.918;2022-12-19T13:58:56;74.57;;;43.30;;
50773;SDS011;36745;48.544;8.918;2022-12-19T14:02:27;73.20;;;42.97;;
50773;SDS011;36745;48.544;8.918;2022-12-19T14:05:49;82.80;;;45.55;;
50773;SDS011;36745;48.544;8.918;2022-12-19T14:09:20;73.70;;;42.95;;
50773;SDS011;36745;48.544;8.918;2022-12-19T14:12:52;69.35;;;41.55;;
50773;SDS011;36745;48.544;8.918;2022-12-19T14:16:30;66.53;;;37.53;;
50773;SDS011;36745;48.544;8.918;2022-12-19T14:19:51;83.50;;;44.97;;
50773;SDS011;36745;48.544;8.918;2022-12-19T14:23:11;63.53;;;36.58;;
50773;SDS011;36745;48.544;8.918;2022-12-19T14:26:31;62.50;;;38.38;;
50773;SDS011;36745;48.544;8.918;2022-12-19T14:29:52;68.43;;;40.42;;
50773;SDS011;36745;48.544;8.918;2022-12-19T14:33:13;70.10;;;41.45;;
50773;SDS011;36745;48.544;8.918;2022-12-19T14:39:59;79.85;;;42.03;;
50773;SDS011;36745;48.544;8.918;2022-12-19T14:43:23;89.55;;;53.17;;
50773;SDS011;36745;48.544;8.918;2022-12-19T14:46:59;85.10;;;47.50;;
50773;SDS011;36745;48.544;8.918;2022-12-19T14:57:43;74.72;;;44.22;;
50773;SDS011;36745;48.544;8.918;2022-12-19T15:01:04;94.88;;;51.60;;
50773;SDS011;36745;48.544;8.918;2022-12-19T15:05:19;77.33;;;45.73;;
50773;SDS011;36745;48.544;8.918;2022-12-19T15:08:30;80.95;;;43.72;;
50773;SDS011;36745;48.544;8.918;2022-12-19T15:11:53;81.72;;;45.88;;
50773;SDS011;36745;48.544;8.918;2022-12-19T15:15:38;79.10;;;45.95;;
50773;SDS011;36745;48.544;8.918;2022-12-19T15:19:09;79.07;;;44.55;;
50773;SDS011;36745;48.544;8.918;2022-12-19T15:22:30;79.43;;;47.50;;
50773;SDS011;36745;48.544;8.918;2022-12-19T15:25:51;92.85;;;49.92;;
50773;SDS011;36745;48.544;8.918;2022-12-19T15:29:11;82.28;;;45.33;;
50773;SDS011;36745;48.544;8.918;2022-12-19T15:32:32;111.88;;;61.85;;
50773;SDS011;36745;48.544;8.918;2022-12-19T15:35:52;102.47;;;56.50;;
50773;SDS011;36745;48.544;8.918;2022-12-19T15:39:13;87.15;;;46.42;;
50773;SDS011;36745;48.544;8.918;2022-12-19T15:42:35;91.05;;;47.22;;
50773;SDS011;36745;48.544;8.918;2022-12-19T15:45:56;93.45;;;50.40;;
50773;SDS011;36745;48.544;8.918;2022-12-19T15:49:17;107.32;;;55.63;;
50773;SDS011;36745;48.544;8.918;2022-12-19T15:52:39;86.85;;;47.83;;
50773;SDS011;36745;48.544;8.918;2022-12-19T15:55:59;82.93;;;44.97;;
50773;SDS011;36745;48.544;8.918;2022-12-19T15:59:22;74.30;;;41.83;;
50773;SDS011;36745;48.544;8.918;2022-12-19T16:02:51;101.07;;;53.58;;
50773;SDS011;36745;48.544;8.918;2022-12-19T16:06:13;122.75;;;60.83;;
50773;SDS011;36745;48.544;8.918;2022-12-19T16:09:33;132.52;;;67.47;;
50773;SDS011;36745;48.544;8.918;2022-12-19T16:12:54;116.85;;;59.65;;
50773;SDS011;36745;48.544;8.918;2022-12-19T16:16:16;117.47;;;59.47;;
50773;SDS011;36745;48.544;8.918;2022-12-19T16:19:36;111.28;;;57.03;;
50773;SDS011;36745;48.544;8.918;2022-12-19T16:22:55;127.07;;;63.55;;
50773;SDS011;36745;48.544;8.918;2022-12-19T16:26:26;115.88;;;60.28;;
50773;SDS011;36745;48.544;8.918;2022-12-19T16:29:49;114.75;;;58.90;;
50773;SDS011;36745;48.544;8.918;2022-12-19T16:33:17;87.85;;;47.47;;
50773;SDS011;36745;48.544;8.918;2022-12-19T16:36:39;89.25;;;48.05;;
50773;SDS011;36745;48.544;8.918;2022-12-19T16:39:59;83.00;;;47.85;;
50773;SDS011;36745;48.544;8.918;2022-12-19T16:46:48;92.50;;;49.42;;
50773;SDS011;36745;48.544;8.918;2022-12-19T16:50:12;86.35;;;46.85;;
50773;SDS011;36745;48.544;8.918;2022-12-19T16:53:47;109.45;;;62.53;;
50773;SDS011;36745;48.544;8.918;2022-12-19T16:57:17;104.07;;;57.20;;
50773;SDS011;36745;48.544;8.918;2022-12-19T17:00:39;83.38;;;46.60;;
50773;SDS011;36745;48.544;8.918;2022-12-19T17:04:03;125.63;;;60.22;;
50773;SDS011;36745;48.544;8.918;2022-12-19T17:07:23;132.75;;;67.93;;
50773;SDS011;36745;48.544;8.918;2022-12-19T17:10:43;135.82;;;69.72;;
50773;SDS011;36745;48.544;8.918;2022-12-19T17:14:06;129.18;;;68.60;;
50773;SDS011;36745;48.544;8.918;2022-12-19T17:17:33;117.22;;;64.97;;
50773;SDS011;36745;48.544;8.918;2022-12-19T17:20:53;122.13;;;63.75;;
50773;SDS011;36745;48.544;8.918;2022-12-19T17:24:13;115.28;;;62.85;;
50773;SDS011;36745;48.544;8.918;2022-12-19T17:27:34;110.18;;;60.35;;
50773;SDS011;36745;48.544;8.918;2022-12-19T17:30:54;120.72;;;64.40;;
50773;SDS011;36745;48.544;8.918;2022-12-19T17:34:16;116.05;;;60.65;;
50773;SDS011;36745;48.544;8.918;2022-12-19T17:37:46;105.57;;;57.90;;
50773;SDS011;36745;48.544;8.918;2022-12-19T17:41:13;112.25;;;61.40;;
50773;SDS011;36745;48.544;8.918;2022-12-19T17:44:34;112.97;;;59.13;;
50773;SDS011;36745;48.544;8.918;2022-12-19T17:47:54;128.27;;;63.70;;
50773;SDS011;36745;48.544;8.918;2022-12-19T17:51:19;110.95;;;59.00;;
50773;SDS011;36745;48.544;8.918;2022-12-19T17:54:41;94.45;;;54.08;;
50773;SDS011;36745;48.544;8.918;2022-12-19T17:58:00;104.75;;;55.25;;
50773;SDS011;36745;48.544;8.918;2022-12-19T18:01:21;180.93;;;78.43;;
50773;SDS011;36745;48.544;8.918;2022-12-19T18:04:42;159.93;;;82.57;;
50773;SDS011;36745;48.544;8.918;2022-12-19T18:08:02;227.20;;;118.60;;
50773;SDS011;36745;48.544;8.918;2022-12-19T18:11:23;195.27;;;103.90;;
50773;SDS011;36745;48.544;8.918;2022-12-19T18:14:43;205.50;;;111.88;;
50773;SDS011;36745;48.544;8.918;2022-12-19T18:18:03;205.05;;;117.65;;
50773;SDS011;36745;48.544;8.918;2022-12-19T18:21:23;178.02;;;99.38;;
50773;SDS011;36745;48.544;8.918;2022-12-19T18:24:43;151.52;;;91.32;;
50773;SDS011;36745;48.544;8.918;2022-12-19T18:28:03;170.10;;;99.93;;
50773;SDS011;36745;48.544;8.918;2022-12-19T18:31:23;168.93;;;100.75;;
50773;SDS011;36745;48.544;8.918;2022-12-19T18:34:44;166.82;;;90.30;;
50773;SDS011;36745;48.544;8.918;2022-12-19T18:38:05;159.35;;;93.35;;
50773;SDS011;36745;48.544;8.918;2022-12-19T18:41:26;238.82;;;127.60;;
50773;SDS011;36745;48.544;8.918;2022-12-19T18:44:46;152.63;;;94.88;;
50773;SDS011;36745;48.544;8.918;2022-12-19T18:48:07;158.30;;;88.13;;
50773;SDS011;36745;48.544;8.918;2022-12-19T18:51:36;164.15;;;85.40;;
50773;SDS011;36745;48.544;8.918;2022-12-19T18:54:56;118.85;;;66.28;;
50773;SDS011;36745;48.544;8.918;2022-12-19T18:58:16;126.75;;;69.28;;
50773;SDS011;36745;48.544;8.918;2022-12-19T19:01:38;140.68;;;75.82;;
50773;SDS011;36745;48.544;8.918;2022-12-19T19:08:21;98.05;;;54.10;;
50773;SDS011;36745;48.544;8.918;2022-12-19T19:11:42;133.75;;;76.13;;
50773;SDS011;36745;48.544;8.918;2022-12-19T19:15:02;162.57;;;91.82;;
50773;SDS011;36745;48.544;8.918;2022-12-19T19:18:23;111.50;;;61.55;;
50773;SDS011;36745;48.544;8.918;2022-12-19T19:21:45;106.07;;;61.00;;
50773;SDS011;36745;48.544;8.918;2022-12-19T19:25:05;99.45;;;56.55;;
50773;SDS011;36745;48.544;8.918;2022-12-19T19:28:25;149.88;;;82.43;;
50773;SDS011;36745;48.544;8.918;2022-12-19T19:31:46;146.05;;;81.47;;
50773;SDS011;36745;48.544;8.918;2022-12-19T19:35:10;117.90;;;65.35;;
50773;SDS011;36745;48.544;8.918;2022-12-19T19:38:30;102.50;;;59.40;;
50773;SDS011;36745;48.544;8.918;2022-12-19T19:41:50;94.45;;;55.28;;
50773;SDS011;36745;48.544;8.918;2022-12-19T19:45:10;112.18;;;59.47;;
50773;SDS011;36745;48.544;8.918;2022-12-19T19:48:31;102.35;;;57.10;;
50773;SDS011;36745;48.544;8.918;2022-12-19T19:51:51;106.28;;;57.15;;
50773;SDS011;36745;48.544;8.918;2022-12-19T19:55:11;119.40;;;66.18;;
50773;SDS011;36745;48.544;8.918;2022-12-19T19:58:32;127.72;;;67.70;;
50773;SDS011;36745;48.544;8.918;2022-12-19T20:01:52;167.48;;;78.65;;
50773;SDS011;36745;48.544;8.918;2022-12-19T20:05:13;157.90;;;76.15;;
50773;SDS011;36745;48.544;8.918;2022-12-19T20:08:33;184.85;;;90.28;;
50773;SDS011;36745;48.544;8.918;2022-12-19T20:11:53;192.07;;;96.93;;
50773;SDS011;36745;48.544;8.918;2022-12-19T20:15:14;169.93;;;81.63;;
50773;SDS011;36745;48.544;8.918;2022-12-19T20:18:35;157.30;;;79.45;;
50773;SDS011;36745;48.544;8.918;2022-12-19T20:21:55;151.75;;;72.82;;
50773;SDS011;36745;48.544;8.918;2022-12-19T20:25:16;171.13;;;79.45;;
50773;SDS011;36745;48.544;8.918;2022-12-19T20:28:36;166.40;;;84.72;;
50773;SDS011;36745;48.544;8.918;2022-12-19T20:31:56;163.35;;;78.80;;
50773;SDS011;36745;48.544;8.918;2022-12-19T20:35:15;160.27;;;78.85;;
50773;SDS011;36745;48.544;8.918;2022-12-19T20:38:36;168.77;;;84.70;;
50773;SDS011;36745;48.544;8.918;2022-12-19T20:41:56;152.55;;;76.65;;
50773;SDS011;36745;48.544;8.918;2022-12-19T20:45:16;142.30;;;70.10;;
50773;SDS011;36745;48.544;8.918;2022-12-19T20:48:36;171.80;;;93.03;;
50773;SDS011;36745;48.544;8.918;2022-12-19T20:51:56;160.55;;;85.57;;
50773;SDS011;36745;48.544;8.918;2022-12-19T20:55:16;159.02;;;83.63;;
50773;SDS011;36745;48.544;8.918;2022-12-19T20:58:36;153.52;;;83.03;;
50773;SDS011;36745;48.544;8.918;2022-12-19T21:01:56;152.00;;;83.25;;
50773;SDS011;36745;48.544;8.918;2022-12-19T21:05:18;144.07;;;82.65;;
50773;SDS011;36745;48.544;8.918;2022-12-19T21:08:39;138.85;;;76.30;;
50773;SDS011;36745;48.544;8.918;2022-12-19T21:11:58;139.20;;;72.13;;
50773;SDS011;36745;48.544;8.918;2022-12-19T21:15:18;130.27;;;69.00;;
50773;SDS011;36745;48.544;8.918;2022-12-19T21:18:39;117.20;;;63.97;;
50773;SDS011;36745;48.544;8.918;2022-12-19T21:21:59;104.72;;;56.33;;
50773;SDS011;36745;48.544;8.918;2022-12-19T21:25:19;85.93;;;50.25;;
50773;SDS011;36745;48.544;8.918;2022-12-19T21:28:39;114.10;;;60.35;;
50773;SDS011;36745;48.544;8.918;2022-12-19T21:32:00;105.32;;;55.60;;
50773;SDS011;36745;48.544;8.918;2022-12-19T21:35:20;92.57;;;52.00;;
50773;SDS011;36745;48.544;8.918;2022-12-19T21:38:39;103.05;;;57.97;;
50773;SDS011;36745;48.544;8.918;2022-12-19T21:41:59;117.97;;;61.05;;
50773;SDS011;36745;48.544;8.918;2022-12-19T21:45:19;125.90;;;67.90;;
50773;SDS011;36745;48.544;8.918;2022-12-19T21:48:40;129.43;;;67.28;;
50773;SDS011;36745;48.544;8.918;2022-12-19T21:52:03;117.32;;;63.55;;